sensor_id;sensor_type;location;lat;lon;timestamp;P1;durP1;ratioP1;P2;durP2;ratioP2
6093;SDS011;19964;42.060;24.700;2024-03-02T00:01:25;156.63;;;54.77;;
6093;SDS011;19964;42.060;24.700;2024-03-02T00:03:52;168.13;;;55.40;;
6093;SDS011;19964;42.060;24.700;2024-03-02T00:06:19;174.90;;;58.37;;
6093;SDS011;19964;42.060;24.700;2024-03-02T00:08:49;173.23;;;56.40;;
6093;SDS011;19964;42.060;24.700;2024-03-02T00:11:16;154.33;;;56.43;;
6093;SDS011;19964;42.060;24.700;2024-03-02T00:13:44;163.60;;;55.33;;
6093;SDS011;19964;42.060;24.700;2024-03-02T00:16:12;158.13;;;54.33;;
6093;SDS011;19964;42.060;24.700;2024-03-02T00:18:41;127.60;;;49.30;;
6093;SDS011;19964;42.060;24.700;2024-03-02T00:21:09;123.10;;;48.30;;
6093;SDS011;19964;42.060;24.700;2024-03-02T00:23:36;123.57;;;48.57;;
6093;SDS011;19964;42.060;24.700;2024-03-02T00:26:05;113.77;;;47.50;;
6093;SDS011;19964;42.060;24.700;2024-03-02T00:28:34;109.10;;;46.00;;
6093;SDS011;19964;42.060;24.700;2024-03-02T00:31:02;113.47;;;46.23;;
6093;SDS011;19964;42.060;24.700;2024-03-02T00:33:31;108.77;;;45.13;;
6093;SDS011;19964;42.060;24.700;2024-03-02T00:35:59;107.67;;;44.37;;
6093;SDS011;19964;42.060;24.700;2024-03-02T00:38:28;99.27;;;42.37;;
6093;SDS011;19964;42.060;24.700;2024-03-02T00:40:56;90.50;;;40.03;;
6093;SDS011;19964;42.060;24.700;2024-03-02T00:46:23;85.27;;;39.27;;
6093;SDS011;19964;42.060;24.700;2024-03-02T00:48:52;91.60;;;39.03;;
6093;SDS011;19964;42.060;24.700;2024-03-02T00:51:21;290.37;;;46.63;;
6093;SDS011;19964;42.060;24.700;2024-03-02T00:53:49;86.47;;;39.50;;
6093;SDS011;19964;42.060;24.700;2024-03-02T00:56:17;156.23;;;42.23;;
6093;SDS011;19964;42.060;24.700;2024-03-02T00:58:45;141.60;;;41.37;;
6093;SDS011;19964;42.060;24.700;2024-03-02T01:01:14;165.70;;;41.80;;
6093;SDS011;19964;42.060;24.700;2024-03-02T01:03:41;113.47;;;42.43;;
6093;SDS011;19964;42.060;24.700;2024-03-02T01:06:08;144.27;;;46.27;;
6093;SDS011;19964;42.060;24.700;2024-03-02T01:08:35;168.97;;;45.03;;
6093;SDS011;19964;42.060;24.700;2024-03-02T01:11:02;116.77;;;44.90;;
6093;SDS011;19964;42.060;24.700;2024-03-02T01:13:30;176.97;;;45.60;;
6093;SDS011;19964;42.060;24.700;2024-03-02T01:15:57;382.17;;;55.10;;
6093;SDS011;19964;42.060;24.700;2024-03-02T01:18:26;140.83;;;46.23;;
6093;SDS011;19964;42.060;24.700;2024-03-02T01:20:53;209.07;;;46.07;;
6093;SDS011;19964;42.060;24.700;2024-03-02T01:23:21;253.90;;;50.47;;
6093;SDS011;19964;42.060;24.700;2024-03-02T01:25:48;387.00;;;57.27;;
6093;SDS011;19964;42.060;24.700;2024-03-02T01:28:15;319.03;;;53.97;;
6093;SDS011;19964;42.060;24.700;2024-03-02T01:30:42;320.33;;;56.07;;
6093;SDS011;19964;42.060;24.700;2024-03-02T01:33:09;199.93;;;49.93;;
6093;SDS011;19964;42.060;24.700;2024-03-02T01:35:37;476.20;;;64.17;;
6093;SDS011;19964;42.060;24.700;2024-03-02T01:38:04;309.33;;;55.03;;
6093;SDS011;19964;42.060;24.700;2024-03-02T01:40:32;610.13;;;67.87;;
6093;SDS011;19964;42.060;24.700;2024-03-02T01:43:00;548.03;;;58.30;;
6093;SDS011;19964;42.060;24.700;2024-03-02T01:45:27;601.43;;;67.93;;
6093;SDS011;19964;42.060;24.700;2024-03-02T01:47:54;396.43;;;56.10;;
6093;SDS011;19964;42.060;24.700;2024-03-02T01:50:25;674.83;;;72.20;;
6093;SDS011;19964;42.060;24.700;2024-03-02T01:52:55;618.60;;;63.90;;
6093;SDS011;19964;42.060;24.700;2024-03-02T01:55:22;710.57;;;74.47;;
6093;SDS011;19964;42.060;24.700;2024-03-02T01:57:49;795.07;;;84.47;;
6093;SDS011;19964;42.060;24.700;2024-03-02T02:00:17;767.93;;;83.00;;
6093;SDS011;19964;42.060;24.700;2024-03-02T02:02:45;810.77;;;78.30;;
6093;SDS011;19964;42.060;24.700;2024-03-02T02:05:12;378.47;;;55.60;;
6093;SDS011;19964;42.060;24.700;2024-03-02T02:07:40;544.77;;;62.53;;
6093;SDS011;19964;42.060;24.700;2024-03-02T02:10:09;577.23;;;70.57;;
6093;SDS011;19964;42.060;24.700;2024-03-02T02:12:36;704.53;;;97.70;;
6093;SDS011;19964;42.060;24.700;2024-03-02T02:15:04;740.17;;;81.50;;
6093;SDS011;19964;42.060;24.700;2024-03-02T02:17:48;732.90;;;76.77;;
6093;SDS011;19964;42.060;24.700;2024-03-02T02:20:15;742.00;;;77.57;;
6093;SDS011;19964;42.060;24.700;2024-03-02T02:22:53;476.70;;;60.83;;
6093;SDS011;19964;42.060;24.700;2024-03-02T02:25:24;757.00;;;72.07;;
6093;SDS011;19964;42.060;24.700;2024-03-02T02:27:51;833.63;;;85.70;;
6093;SDS011;19964;42.060;24.700;2024-03-02T02:30:19;769.33;;;83.67;;
6093;SDS011;19964;42.060;24.700;2024-03-02T02:32:47;685.70;;;83.37;;
6093;SDS011;19964;42.060;24.700;2024-03-02T02:35:14;358.10;;;57.40;;
6093;SDS011;19964;42.060;24.700;2024-03-02T02:37:41;546.93;;;68.20;;
6093;SDS011;19964;42.060;24.700;2024-03-02T02:40:10;529.63;;;65.93;;
6093;SDS011;19964;42.060;24.700;2024-03-02T02:42:38;626.20;;;71.77;;
6093;SDS011;19964;42.060;24.700;2024-03-02T02:45:05;587.00;;;68.43;;
6093;SDS011;19964;42.060;24.700;2024-03-02T02:47:33;976.93;;;86.33;;
6093;SDS011;19964;42.060;24.700;2024-03-02T02:50:00;881.57;;;85.17;;
6093;SDS011;19964;42.060;24.700;2024-03-02T02:52:30;980.57;;;89.90;;
6093;SDS011;19964;42.060;24.700;2024-03-02T02:55:01;592.00;;;62.70;;
6093;SDS011;19964;42.060;24.700;2024-03-02T02:57:30;659.90;;;69.53;;
6093;SDS011;19964;42.060;24.700;2024-03-02T03:00:01;797.33;;;84.90;;
6093;SDS011;19964;42.060;24.700;2024-03-02T03:02:35;587.80;;;60.70;;
6093;SDS011;19964;42.060;24.700;2024-03-02T03:05:03;510.17;;;59.30;;
6093;SDS011;19964;42.060;24.700;2024-03-02T03:07:31;729.77;;;69.00;;
6093;SDS011;19964;42.060;24.700;2024-03-02T03:09:59;750.57;;;72.47;;
6093;SDS011;19964;42.060;24.700;2024-03-02T03:12:24;773.03;;;77.47;;
6093;SDS011;19964;42.060;24.700;2024-03-02T03:14:53;486.43;;;55.73;;
6093;SDS011;19964;42.060;24.700;2024-03-02T03:17:21;583.13;;;62.27;;
6093;SDS011;19964;42.060;24.700;2024-03-02T03:19:48;579.50;;;64.83;;
6093;SDS011;19964;42.060;24.700;2024-03-02T03:22:15;652.70;;;70.93;;
6093;SDS011;19964;42.060;24.700;2024-03-02T03:24:42;570.87;;;63.73;;
6093;SDS011;19964;42.060;24.700;2024-03-02T03:27:09;438.77;;;56.70;;
6093;SDS011;19964;42.060;24.700;2024-03-02T03:29:36;605.23;;;62.73;;
6093;SDS011;19964;42.060;24.700;2024-03-02T03:32:05;353.67;;;47.67;;
6093;SDS011;19964;42.060;24.700;2024-03-02T03:34:33;397.03;;;49.17;;
6093;SDS011;19964;42.060;24.700;2024-03-02T03:37:00;321.87;;;49.57;;
6093;SDS011;19964;42.060;24.700;2024-03-02T03:39:27;294.43;;;45.87;;
6093;SDS011;19964;42.060;24.700;2024-03-02T03:41:54;238.80;;;42.43;;
6093;SDS011;19964;42.060;24.700;2024-03-02T03:44:21;462.63;;;56.37;;
6093;SDS011;19964;42.060;24.700;2024-03-02T03:46:48;369.23;;;48.90;;
6093;SDS011;19964;42.060;24.700;2024-03-02T03:49:17;458.67;;;52.07;;
6093;SDS011;19964;42.060;24.700;2024-03-02T03:51:44;359.20;;;45.90;;
6093;SDS011;19964;42.060;24.700;2024-03-02T03:54:10;438.17;;;51.70;;
6093;SDS011;19964;42.060;24.700;2024-03-02T03:56:37;304.43;;;43.10;;
6093;SDS011;19964;42.060;24.700;2024-03-02T03:59:04;262.33;;;40.23;;
6093;SDS011;19964;42.060;24.700;2024-03-02T04:01:31;318.13;;;43.27;;
6093;SDS011;19964;42.060;24.700;2024-03-02T04:03:58;377.83;;;46.30;;
6093;SDS011;19964;42.060;24.700;2024-03-02T04:06:28;334.33;;;44.17;;
6093;SDS011;19964;42.060;24.700;2024-03-02T04:08:55;396.23;;;48.67;;
6093;SDS011;19964;42.060;24.700;2024-03-02T04:11:22;306.10;;;42.00;;
6093;SDS011;19964;42.060;24.700;2024-03-02T04:13:49;337.93;;;43.53;;
6093;SDS011;19964;42.060;24.700;2024-03-02T04:16:16;435.77;;;52.80;;
6093;SDS011;19964;42.060;24.700;2024-03-02T04:18:43;494.97;;;50.97;;
6093;SDS011;19964;42.060;24.700;2024-03-02T04:21:10;454.37;;;48.50;;
6093;SDS011;19964;42.060;24.700;2024-03-02T04:23:39;529.70;;;55.47;;
6093;SDS011;19964;42.060;24.700;2024-03-02T04:26:06;390.93;;;48.13;;
6093;SDS011;19964;42.060;24.700;2024-03-02T04:28:33;469.00;;;50.13;;
6093;SDS011;19964;42.060;24.700;2024-03-02T04:30:59;372.90;;;50.73;;
6093;SDS011;19964;42.060;24.700;2024-03-02T04:33:26;187.37;;;38.03;;
6093;SDS011;19964;42.060;24.700;2024-03-02T04:35:53;264.97;;;41.40;;
6093;SDS011;19964;42.060;24.700;2024-03-02T04:38:20;181.70;;;40.13;;
6093;SDS011;19964;42.060;24.700;2024-03-02T04:40:49;218.80;;;41.33;;
6093;SDS011;19964;42.060;24.700;2024-03-02T04:43:16;237.00;;;40.27;;
6093;SDS011;19964;42.060;24.700;2024-03-02T04:45:44;203.57;;;37.77;;
6093;SDS011;19964;42.060;24.700;2024-03-02T04:48:11;189.37;;;43.93;;
6093;SDS011;19964;42.060;24.700;2024-03-02T04:50:38;217.57;;;40.20;;
6093;SDS011;19964;42.060;24.700;2024-03-02T04:53:05;217.87;;;39.17;;
6093;SDS011;19964;42.060;24.700;2024-03-02T04:55:33;163.87;;;36.93;;
6093;SDS011;19964;42.060;24.700;2024-03-02T04:58:30;160.23;;;37.63;;
6093;SDS011;19964;42.060;24.700;2024-03-02T05:00:57;124.23;;;34.87;;
6093;SDS011;19964;42.060;24.700;2024-03-02T05:03:24;141.57;;;38.40;;
6093;SDS011;19964;42.060;24.700;2024-03-02T05:05:51;164.87;;;46.03;;
6093;SDS011;19964;42.060;24.700;2024-03-02T05:08:18;175.70;;;47.63;;
6093;SDS011;19964;42.060;24.700;2024-03-02T05:10:45;138.57;;;38.67;;
6093;SDS011;19964;42.060;24.700;2024-03-02T05:13:13;151.40;;;40.27;;
6093;SDS011;19964;42.060;24.700;2024-03-02T05:15:40;127.27;;;38.07;;
6093;SDS011;19964;42.060;24.700;2024-03-02T05:18:08;131.60;;;37.70;;
6093;SDS011;19964;42.060;24.700;2024-03-02T05:20:35;149.37;;;39.90;;
6093;SDS011;19964;42.060;24.700;2024-03-02T05:23:02;135.10;;;39.97;;
6093;SDS011;19964;42.060;24.700;2024-03-02T05:25:30;148.83;;;37.90;;
6093;SDS011;19964;42.060;24.700;2024-03-02T05:27:57;114.93;;;34.10;;
6093;SDS011;19964;42.060;24.700;2024-03-02T05:30:24;124.13;;;34.70;;
6093;SDS011;19964;42.060;24.700;2024-03-02T05:32:52;121.53;;;33.83;;
6093;SDS011;19964;42.060;24.700;2024-03-02T05:35:19;100.17;;;30.83;;
6093;SDS011;19964;42.060;24.700;2024-03-02T05:37:46;104.53;;;30.97;;
6093;SDS011;19964;42.060;24.700;2024-03-02T05:40:14;97.07;;;31.93;;
6093;SDS011;19964;42.060;24.700;2024-03-02T05:42:41;102.90;;;35.40;;
6093;SDS011;19964;42.060;24.700;2024-03-02T05:45:08;104.10;;;31.50;;
6093;SDS011;19964;42.060;24.700;2024-03-02T05:47:35;104.03;;;34.47;;
6093;SDS011;19964;42.060;24.700;2024-03-02T05:50:05;84.10;;;30.97;;
6093;SDS011;19964;42.060;24.700;2024-03-02T05:52:33;89.30;;;30.07;;
6093;SDS011;19964;42.060;24.700;2024-03-02T05:55:00;87.63;;;32.07;;
6093;SDS011;19964;42.060;24.700;2024-03-02T05:57:27;86.70;;;35.87;;
6093;SDS011;19964;42.060;24.700;2024-03-02T06:00:10;82.50;;;31.30;;
6093;SDS011;19964;42.060;24.700;2024-03-02T06:02:38;84.70;;;30.23;;
6093;SDS011;19964;42.060;24.700;2024-03-02T06:05:07;68.00;;;29.60;;
6093;SDS011;19964;42.060;24.700;2024-03-02T06:07:34;70.03;;;27.50;;
6093;SDS011;19964;42.060;24.700;2024-03-02T06:10:01;65.97;;;27.13;;
6093;SDS011;19964;42.060;24.700;2024-03-02T06:12:28;61.20;;;26.37;;
6093;SDS011;19964;42.060;24.700;2024-03-02T06:14:57;60.17;;;28.00;;
6093;SDS011;19964;42.060;24.700;2024-03-02T06:17:24;59.47;;;26.70;;
6093;SDS011;19964;42.060;24.700;2024-03-02T06:19:51;60.93;;;28.17;;
6093;SDS011;19964;42.060;24.700;2024-03-02T06:22:19;59.47;;;28.00;;
6093;SDS011;19964;42.060;24.700;2024-03-02T06:24:48;65.20;;;30.67;;
6093;SDS011;19964;42.060;24.700;2024-03-02T06:27:15;59.37;;;27.10;;
6093;SDS011;19964;42.060;24.700;2024-03-02T06:29:42;67.10;;;27.27;;
6093;SDS011;19964;42.060;24.700;2024-03-02T06:32:09;62.63;;;26.73;;
6093;SDS011;19964;42.060;24.700;2024-03-02T06:34:36;62.77;;;26.93;;
6093;SDS011;19964;42.060;24.700;2024-03-02T06:37:03;50.33;;;25.17;;
6093;SDS011;19964;42.060;24.700;2024-03-02T06:39:31;49.23;;;24.97;;
6093;SDS011;19964;42.060;24.700;2024-03-02T06:41:59;46.50;;;23.47;;
6093;SDS011;19964;42.060;24.700;2024-03-02T06:44:26;47.67;;;26.13;;
6093;SDS011;19964;42.060;24.700;2024-03-02T06:46:53;50.40;;;26.80;;
6093;SDS011;19964;42.060;24.700;2024-03-02T06:49:20;44.87;;;24.17;;
6093;SDS011;19964;42.060;24.700;2024-03-02T06:51:47;45.43;;;24.30;;
6093;SDS011;19964;42.060;24.700;2024-03-02T06:54:15;38.43;;;21.67;;
6093;SDS011;19964;42.060;24.700;2024-03-02T06:56:43;41.23;;;21.23;;
6093;SDS011;19964;42.060;24.700;2024-03-02T06:59:10;44.43;;;24.17;;
6093;SDS011;19964;42.060;24.700;2024-03-02T07:01:37;35.50;;;20.43;;
6093;SDS011;19964;42.060;24.700;2024-03-02T07:04:04;36.87;;;21.60;;
6093;SDS011;19964;42.060;24.700;2024-03-02T07:06:32;35.07;;;20.10;;
6093;SDS011;19964;42.060;24.700;2024-03-02T07:08:59;36.37;;;21.10;;
6093;SDS011;19964;42.060;24.700;2024-03-02T07:11:26;37.03;;;20.27;;
6093;SDS011;19964;42.060;24.700;2024-03-02T07:13:54;35.70;;;21.00;;
6093;SDS011;19964;42.060;24.700;2024-03-02T07:16:21;42.50;;;21.07;;
6093;SDS011;19964;42.060;24.700;2024-03-02T07:18:53;39.70;;;19.97;;
6093;SDS011;19964;42.060;24.700;2024-03-02T07:21:21;36.60;;;19.27;;
6093;SDS011;19964;42.060;24.700;2024-03-02T07:23:49;46.77;;;25.60;;
6093;SDS011;19964;42.060;24.700;2024-03-02T07:26:16;48.00;;;26.13;;
6093;SDS011;19964;42.060;24.700;2024-03-02T07:28:44;54.47;;;32.20;;
6093;SDS011;19964;42.060;24.700;2024-03-02T07:31:14;43.50;;;25.73;;
6093;SDS011;19964;42.060;24.700;2024-03-02T07:33:43;33.27;;;21.77;;
6093;SDS011;19964;42.060;24.700;2024-03-02T07:36:10;49.67;;;37.07;;
6093;SDS011;19964;42.060;24.700;2024-03-02T07:38:37;29.53;;;21.70;;
6093;SDS011;19964;42.060;24.700;2024-03-02T07:41:05;23.93;;;16.20;;
6093;SDS011;19964;42.060;24.700;2024-03-02T07:43:32;49.03;;;37.77;;
6093;SDS011;19964;42.060;24.700;2024-03-02T07:46:00;25.33;;;19.60;;
6093;SDS011;19964;42.060;24.700;2024-03-02T07:48:29;26.97;;;19.77;;
6093;SDS011;19964;42.060;24.700;2024-03-02T07:50:57;49.70;;;36.93;;
6093;SDS011;19964;42.060;24.700;2024-03-02T07:53:24;28.00;;;19.40;;
6093;SDS011;19964;42.060;24.700;2024-03-02T07:55:51;21.73;;;15.33;;
6093;SDS011;19964;42.060;24.700;2024-03-02T07:58:18;24.23;;;15.70;;
6093;SDS011;19964;42.060;24.700;2024-03-02T08:00:45;24.23;;;15.97;;
6093;SDS011;19964;42.060;24.700;2024-03-02T08:03:13;22.37;;;15.40;;
6093;SDS011;19964;42.060;24.700;2024-03-02T08:05:41;29.90;;;22.63;;
6093;SDS011;19964;42.060;24.700;2024-03-02T08:08:08;18.47;;;13.07;;
6093;SDS011;19964;42.060;24.700;2024-03-02T08:10:37;18.63;;;13.90;;
6093;SDS011;19964;42.060;24.700;2024-03-02T08:13:03;46.10;;;26.50;;
6093;SDS011;19964;42.060;24.700;2024-03-02T08:15:30;49.67;;;25.90;;
6093;SDS011;19964;42.060;24.700;2024-03-02T08:17:57;39.87;;;24.37;;
6093;SDS011;19964;42.060;24.700;2024-03-02T08:20:25;55.27;;;30.73;;
6093;SDS011;19964;42.060;24.700;2024-03-02T08:22:53;65.33;;;34.23;;
6093;SDS011;19964;42.060;24.700;2024-03-02T08:25:21;53.90;;;28.43;;
6093;SDS011;19964;42.060;24.700;2024-03-02T08:27:48;50.03;;;27.70;;
6093;SDS011;19964;42.060;24.700;2024-03-02T08:30:15;56.47;;;37.37;;
6093;SDS011;19964;42.060;24.700;2024-03-02T08:32:43;45.57;;;25.40;;
6093;SDS011;19964;42.060;24.700;2024-03-02T08:35:10;50.27;;;24.63;;
6093;SDS011;19964;42.060;24.700;2024-03-02T08:37:37;40.87;;;22.67;;
6093;SDS011;19964;42.060;24.700;2024-03-02T08:40:08;48.27;;;26.90;;
6093;SDS011;19964;42.060;24.700;2024-03-02T08:42:35;56.33;;;30.23;;
6093;SDS011;19964;42.060;24.700;2024-03-02T08:45:03;62.20;;;31.10;;
6093;SDS011;19964;42.060;24.700;2024-03-02T08:47:31;74.43;;;31.47;;
6093;SDS011;19964;42.060;24.700;2024-03-02T08:49:58;66.80;;;33.50;;
6093;SDS011;19964;42.060;24.700;2024-03-02T08:52:25;51.63;;;25.93;;
6093;SDS011;19964;42.060;24.700;2024-03-02T08:54:52;78.20;;;37.43;;
6093;SDS011;19964;42.060;24.700;2024-03-02T08:57:21;46.33;;;24.97;;
6093;SDS011;19964;42.060;24.700;2024-03-02T08:59:48;46.50;;;25.57;;
6093;SDS011;19964;42.060;24.700;2024-03-02T09:02:15;43.50;;;22.87;;
6093;SDS011;19964;42.060;24.700;2024-03-02T09:04:42;36.10;;;20.40;;
6093;SDS011;19964;42.060;24.700;2024-03-02T09:07:09;37.47;;;22.73;;
6093;SDS011;19964;42.060;24.700;2024-03-02T09:09:36;36.13;;;22.03;;
6093;SDS011;19964;42.060;24.700;2024-03-02T09:12:04;42.20;;;23.30;;
6093;SDS011;19964;42.060;24.700;2024-03-02T09:14:32;50.90;;;27.90;;
6093;SDS011;19964;42.060;24.700;2024-03-02T09:17:01;51.83;;;26.60;;
6093;SDS011;19964;42.060;24.700;2024-03-02T09:19:29;43.57;;;23.50;;
6093;SDS011;19964;42.060;24.700;2024-03-02T09:21:56;40.83;;;22.97;;
6093;SDS011;19964;42.060;24.700;2024-03-02T09:24:23;40.43;;;24.37;;
6093;SDS011;19964;42.060;24.700;2024-03-02T09:26:50;38.00;;;23.83;;
6093;SDS011;19964;42.060;24.700;2024-03-02T09:29:17;48.67;;;27.17;;
6093;SDS011;19964;42.060;24.700;2024-03-02T09:31:47;48.80;;;25.60;;
6093;SDS011;19964;42.060;24.700;2024-03-02T09:34:14;50.17;;;26.77;;
6093;SDS011;19964;42.060;24.700;2024-03-02T09:36:41;62.40;;;34.93;;
6093;SDS011;19964;42.060;24.700;2024-03-02T09:39:08;50.57;;;27.03;;
6093;SDS011;19964;42.060;24.700;2024-03-02T09:41:36;49.57;;;26.60;;
6093;SDS011;19964;42.060;24.700;2024-03-02T09:44:03;51.90;;;27.47;;
6093;SDS011;19964;42.060;24.700;2024-03-02T09:46:31;53.30;;;28.83;;
6093;SDS011;19964;42.060;24.700;2024-03-02T09:48:59;48.87;;;28.20;;
6093;SDS011;19964;42.060;24.700;2024-03-02T09:51:27;46.10;;;26.07;;
6093;SDS011;19964;42.060;24.700;2024-03-02T09:53:54;49.67;;;28.20;;
6093;SDS011;19964;42.060;24.700;2024-03-02T09:56:22;48.97;;;26.63;;
6093;SDS011;19964;42.060;24.700;2024-03-02T09:58:49;49.47;;;27.40;;
6093;SDS011;19964;42.060;24.700;2024-03-02T10:01:16;47.77;;;26.20;;
6093;SDS011;19964;42.060;24.700;2024-03-02T10:03:44;47.20;;;25.57;;
6093;SDS011;19964;42.060;24.700;2024-03-02T10:06:20;149.37;;;88.67;;
6093;SDS011;19964;42.060;24.700;2024-03-02T10:08:47;51.87;;;29.87;;
6093;SDS011;19964;42.060;24.700;2024-03-02T10:14:05;43.93;;;26.10;;
6093;SDS011;19964;42.060;24.700;2024-03-02T10:16:35;46.47;;;27.47;;
6093;SDS011;19964;42.060;24.700;2024-03-02T10:19:15;47.53;;;30.03;;
6093;SDS011;19964;42.060;24.700;2024-03-02T10:21:45;38.07;;;23.67;;
6093;SDS011;19964;42.060;24.700;2024-03-02T10:24:12;44.37;;;27.90;;
6093;SDS011;19964;42.060;24.700;2024-03-02T10:26:39;37.30;;;24.03;;
6093;SDS011;19964;42.060;24.700;2024-03-02T10:29:07;34.80;;;22.03;;
6093;SDS011;19964;42.060;24.700;2024-03-02T10:31:36;37.07;;;24.53;;
6093;SDS011;19964;42.060;24.700;2024-03-02T10:34:04;33.53;;;21.17;;
6093;SDS011;19964;42.060;24.700;2024-03-02T10:36:31;41.00;;;26.63;;
6093;SDS011;19964;42.060;24.700;2024-03-02T10:39:02;33.20;;;23.87;;
6093;SDS011;19964;42.060;24.700;2024-03-02T10:41:32;41.33;;;25.97;;
6093;SDS011;19964;42.060;24.700;2024-03-02T10:44:01;172.90;;;96.07;;
6093;SDS011;19964;42.060;24.700;2024-03-02T10:46:30;178.43;;;96.47;;
6093;SDS011;19964;42.060;24.700;2024-03-02T10:48:58;52.60;;;33.07;;
6093;SDS011;19964;42.060;24.700;2024-03-02T10:51:25;40.40;;;26.30;;
6093;SDS011;19964;42.060;24.700;2024-03-02T10:53:56;40.10;;;27.37;;
6093;SDS011;19964;42.060;24.700;2024-03-02T10:56:27;34.27;;;22.93;;
6093;SDS011;19964;42.060;24.700;2024-03-02T10:58:57;39.80;;;25.63;;
6093;SDS011;19964;42.060;24.700;2024-03-02T11:01:29;34.93;;;22.33;;
6093;SDS011;19964;42.060;24.700;2024-03-02T11:03:58;34.83;;;24.63;;
6093;SDS011;19964;42.060;24.700;2024-03-02T11:06:27;29.57;;;20.17;;
6093;SDS011;19964;42.060;24.700;2024-03-02T11:08:58;23.70;;;18.53;;
6093;SDS011;19964;42.060;24.700;2024-03-02T11:11:32;24.40;;;18.37;;
6093;SDS011;19964;42.060;24.700;2024-03-02T11:14:04;27.83;;;19.03;;
6093;SDS011;19964;42.060;24.700;2024-03-02T11:16:35;27.13;;;18.97;;
6093;SDS011;19964;42.060;24.700;2024-03-02T11:19:04;31.40;;;21.40;;
6093;SDS011;19964;42.060;24.700;2024-03-02T11:21:34;36.53;;;23.20;;
6093;SDS011;19964;42.060;24.700;2024-03-02T11:24:13;36.33;;;22.97;;
6093;SDS011;19964;42.060;24.700;2024-03-02T11:26:59;38.33;;;26.17;;
6093;SDS011;19964;42.060;24.700;2024-03-02T11:32:15;35.67;;;23.97;;
6093;SDS011;19964;42.060;24.700;2024-03-02T11:34:44;52.43;;;35.97;;
6093;SDS011;19964;42.060;24.700;2024-03-02T11:37:13;42.23;;;26.90;;
6093;SDS011;19964;42.060;24.700;2024-03-02T11:39:41;75.73;;;53.77;;
6093;SDS011;19964;42.060;24.700;2024-03-02T11:42:11;50.37;;;34.27;;
6093;SDS011;19964;42.060;24.700;2024-03-02T11:44:41;48.07;;;32.77;;
6093;SDS011;19964;42.060;24.700;2024-03-02T11:47:10;40.27;;;28.33;;
6093;SDS011;19964;42.060;24.700;2024-03-02T11:49:41;43.57;;;27.33;;
6093;SDS011;19964;42.060;24.700;2024-03-02T11:52:10;39.80;;;29.00;;
6093;SDS011;19964;42.060;24.700;2024-03-02T11:54:40;40.10;;;28.97;;
6093;SDS011;19964;42.060;24.700;2024-03-02T11:57:13;38.97;;;25.90;;
6093;SDS011;19964;42.060;24.700;2024-03-02T11:59:41;51.37;;;32.03;;
6093;SDS011;19964;42.060;24.700;2024-03-02T12:02:14;37.03;;;24.70;;
6093;SDS011;19964;42.060;24.700;2024-03-02T12:04:43;36.50;;;24.80;;
6093;SDS011;19964;42.060;24.700;2024-03-02T12:07:11;36.70;;;26.50;;
6093;SDS011;19964;42.060;24.700;2024-03-02T12:09:39;32.70;;;22.50;;
6093;SDS011;19964;42.060;24.700;2024-03-02T12:12:07;34.83;;;25.20;;
6093;SDS011;19964;42.060;24.700;2024-03-02T12:14:37;32.90;;;24.73;;
6093;SDS011;19964;42.060;24.700;2024-03-02T12:17:05;25.40;;;20.03;;
6093;SDS011;19964;42.060;24.700;2024-03-02T12:19:32;27.10;;;20.53;;
6093;SDS011;19964;42.060;24.700;2024-03-02T12:22:00;26.80;;;18.40;;
6093;SDS011;19964;42.060;24.700;2024-03-02T12:24:27;22.90;;;17.10;;
6093;SDS011;19964;42.060;24.700;2024-03-02T12:26:55;18.73;;;14.83;;
6093;SDS011;19964;42.060;24.700;2024-03-02T12:29:23;27.97;;;19.83;;
6093;SDS011;19964;42.060;24.700;2024-03-02T12:31:52;20.50;;;15.97;;
6093;SDS011;19964;42.060;24.700;2024-03-02T12:34:19;26.67;;;17.53;;
6093;SDS011;19964;42.060;24.700;2024-03-02T12:36:47;22.33;;;17.10;;
6093;SDS011;19964;42.060;24.700;2024-03-02T12:39:17;20.20;;;16.00;;
6093;SDS011;19964;42.060;24.700;2024-03-02T12:41:45;20.23;;;15.13;;
6093;SDS011;19964;42.060;24.700;2024-03-02T12:44:15;20.37;;;14.67;;
6093;SDS011;19964;42.060;24.700;2024-03-02T12:46:43;37.97;;;24.40;;
6093;SDS011;19964;42.060;24.700;2024-03-02T12:49:11;38.10;;;25.63;;
6093;SDS011;19964;42.060;24.700;2024-03-02T12:51:41;17.40;;;12.77;;
6093;SDS011;19964;42.060;24.700;2024-03-02T12:54:09;14.43;;;12.33;;
6093;SDS011;19964;42.060;24.700;2024-03-02T12:56:37;67.80;;;35.23;;
6093;SDS011;19964;42.060;24.700;2024-03-02T12:59:04;50.20;;;29.23;;
6093;SDS011;19964;42.060;24.700;2024-03-02T13:01:32;33.97;;;21.50;;
6093;SDS011;19964;42.060;24.700;2024-03-02T13:03:59;29.30;;;19.50;;
6093;SDS011;19964;42.060;24.700;2024-03-02T13:06:28;35.27;;;22.80;;
6093;SDS011;19964;42.060;24.700;2024-03-02T13:08:55;33.07;;;21.33;;
6093;SDS011;19964;42.060;24.700;2024-03-02T13:11:23;36.60;;;23.40;;
6093;SDS011;19964;42.060;24.700;2024-03-02T13:13:51;20.13;;;15.30;;
6093;SDS011;19964;42.060;24.700;2024-03-02T13:16:18;11.77;;;10.57;;
6093;SDS011;19964;42.060;24.700;2024-03-02T13:18:46;12.73;;;10.30;;
6093;SDS011;19964;42.060;24.700;2024-03-02T13:21:13;11.67;;;10.23;;
6093;SDS011;19964;42.060;24.700;2024-03-02T13:23:42;11.87;;;10.67;;
6093;SDS011;19964;42.060;24.700;2024-03-02T13:26:08;12.97;;;11.13;;
6093;SDS011;19964;42.060;24.700;2024-03-02T13:28:38;22.77;;;15.70;;
6093;SDS011;19964;42.060;24.700;2024-03-02T13:31:05;19.80;;;15.37;;
6093;SDS011;19964;42.060;24.700;2024-03-02T13:33:32;15.53;;;12.83;;
6093;SDS011;19964;42.060;24.700;2024-03-02T13:35:59;16.63;;;13.57;;
6093;SDS011;19964;42.060;24.700;2024-03-02T13:38:26;13.10;;;11.60;;
6093;SDS011;19964;42.060;24.700;2024-03-02T13:40:55;12.90;;;11.40;;
6093;SDS011;19964;42.060;24.700;2024-03-02T13:43:22;14.57;;;11.83;;
6093;SDS011;19964;42.060;24.700;2024-03-02T13:45:50;17.27;;;13.37;;
6093;SDS011;19964;42.060;24.700;2024-03-02T13:48:18;17.77;;;14.00;;
6093;SDS011;19964;42.060;24.700;2024-03-02T13:50:46;20.13;;;15.73;;
6093;SDS011;19964;42.060;24.700;2024-03-02T13:53:12;19.77;;;15.33;;
6093;SDS011;19964;42.060;24.700;2024-03-02T13:55:40;19.30;;;16.03;;
6093;SDS011;19964;42.060;24.700;2024-03-02T13:58:09;20.53;;;16.60;;
6093;SDS011;19964;42.060;24.700;2024-03-02T14:00:37;204.90;;;149.00;;
6093;SDS011;19964;42.060;24.700;2024-03-02T14:03:05;73.07;;;56.60;;
6093;SDS011;19964;42.060;24.700;2024-03-02T14:05:32;115.60;;;92.17;;
6093;SDS011;19964;42.060;24.700;2024-03-02T14:08:00;34.20;;;25.47;;
6093;SDS011;19964;42.060;24.700;2024-03-02T14:10:27;23.77;;;18.93;;
6093;SDS011;19964;42.060;24.700;2024-03-02T14:12:54;26.97;;;19.23;;
6093;SDS011;19964;42.060;24.700;2024-03-02T14:15:23;24.70;;;19.53;;
6093;SDS011;19964;42.060;24.700;2024-03-02T14:17:50;55.93;;;39.00;;
6093;SDS011;19964;42.060;24.700;2024-03-02T14:20:17;23.60;;;18.97;;
6093;SDS011;19964;42.060;24.700;2024-03-02T14:22:47;30.70;;;19.60;;
6093;SDS011;19964;42.060;24.700;2024-03-02T14:25:15;25.97;;;19.47;;
6093;SDS011;19964;42.060;24.700;2024-03-02T14:27:42;27.23;;;19.17;;
6093;SDS011;19964;42.060;24.700;2024-03-02T14:33:52;23.80;;;16.47;;